sensor_id;sensor_type;location;lat;lon;timestamp;pressure;altitude;pressure_sealevel;temperature;humidity
8697;BME280;4385;48.848;8.924;2023-05-25T00:00:13;97797.41;;;20.34;100.00
8697;BME280;4385;48.848;8.924;2023-05-25T00:02:39;97806.78;;;20.34;100.00
8697;BME280;4385;48.848;8.924;2023-05-25T00:05:07;97800.81;;;20.35;100.00
8697;BME280;4385;48.848;8.924;2023-05-25T00:07:33;97805.97;;;20.33;100.00
8697;BME280;4385;48.848;8.924;2023-05-25T00:09:58;97801.69;;;20.32;100.00
8697;BME280;4385;48.848;8.924;2023-05-25T00:12:23;97796.63;;;20.30;100.00
8697;BME280;4385;48.848;8.924;2023-05-25T00:14:49;97802.63;;;20.29;100.00
8697;BME280;4385;48.848;8.924;2023-05-25T00:17:14;97798.41;;;20.28;100.00
8697;BME280;4385;48.848;8.924;2023-05-25T00:19:42;97801.00;;;20.27;100.00
8697;BME280;4385;48.848;8.924;2023-05-25T00:22:14;97795.03;;;20.26;100.00
8697;BME280;4385;48.848;8.924;2023-05-25T00:24:39;97795.91;;;20.25;100.00
8697;BME280;4385;48.848;8.924;2023-05-25T00:27:05;97792.50;;;20.25;100.00
8697;BME280;4385;48.848;8.924;2023-05-25T00:29:31;97795.09;;;20.23;100.00
8697;BME280;4385;48.848;8.924;2023-05-25T00:31:57;97795.09;;;20.23;100.00
8697;BME280;4385;48.848;8.924;2023-05-25T00:34:22;97799.41;;;20.21;100.00
8697;BME280;4385;48.848;8.924;2023-05-25T00:36:48;97798.63;;;20.19;100.00
8697;BME280;4385;48.848;8.924;2023-05-25T00:39:15;97801.19;;;20.19;100.00
8697;BME280;4385;48.848;8.924;2023-05-25T00:41:42;97799.53;;;20.16;100.00
8697;BME280;4385;48.848;8.924;2023-05-25T00:44:09;97804.63;;;20.16;100.00
8697;BME280;4385;48.848;8.924;2023-05-25T00:46:36;97793.59;;;20.16;100.00
8697;BME280;4385;48.848;8.924;2023-05-25T00:49:02;97798.69;;;20.16;100.00
8697;BME280;4385;48.848;8.924;2023-05-25T00:51:28;97799.56;;;20.15;100.00
8697;BME280;4385;48.848;8.924;2023-05-25T00:53:56;97802.97;;;20.15;100.00
8697;BME280;4385;48.848;8.924;2023-05-25T00:56:24;97800.44;;;20.14;100.00
8697;BME280;4385;48.848;8.924;2023-05-25T00:58:53;97798.78;;;20.13;100.00
8697;BME280;4385;48.848;8.924;2023-05-25T01:01:20;97799.63;;;20.12;100.00
8697;BME280;4385;48.848;8.924;2023-05-25T01:03:48;97796.25;;;20.11;100.00
8697;BME280;4385;48.848;8.924;2023-05-25T01:06:20;97790.28;;;20.11;100.00
8697;BME280;4385;48.848;8.924;2023-05-25T01:08:49;97794.59;;;20.09;100.00
8697;BME280;4385;48.848;8.924;2023-05-25T01:11:19;97792.91;;;20.08;100.00
8697;BME280;4385;48.848;8.924;2023-05-25T01:13:47;97791.25;;;20.06;100.00
8697;BME280;4385;48.848;8.924;2023-05-25T01:16:14;97793.00;;;20.04;100.00
8697;BME280;4385;48.848;8.924;2023-05-25T01:18:40;97789.53;;;20.05;100.00
8697;BME280;4385;48.848;8.924;2023-05-25T01:21:43;97793.88;;;20.03;100.00
8697;BME280;4385;48.848;8.924;2023-05-25T01:24:17;97793.88;;;20.03;100.00
8697;BME280;4385;48.848;8.924;2023-05-25T01:26:56;97797.28;;;20.02;100.00
8697;BME280;4385;48.848;8.924;2023-05-25T01:29:23;97792.19;;;20.02;100.00
8697;BME280;4385;48.848;8.924;2023-05-25T01:31:51;97785.34;;;20.01;100.00
8697;BME280;4385;48.848;8.924;2023-05-25T01:34:18;97784.50;;;20.01;100.00
8697;BME280;4385;48.848;8.924;2023-05-25T01:36:44;97790.47;;;20.01;100.00
8697;BME280;4385;48.848;8.924;2023-05-25T01:39:09;97794.75;;;20.01;100.00
8697;BME280;4385;48.848;8.924;2023-05-25T01:41:35;97794.75;;;20.01;100.00
8697;BME280;4385;48.848;8.924;2023-05-25T01:44:00;97782.00;;;19.99;100.00
8697;BME280;4385;48.848;8.924;2023-05-25T01:46:36;97781.19;;;19.97;100.00
8697;BME280;4385;48.848;8.924;2023-05-25T01:51:41;97781.28;;;19.94;100.00
8697;BME280;4385;48.848;8.924;2023-05-25T01:54:17;97776.16;;;19.94;100.00
8697;BME280;4385;48.848;8.924;2023-05-25T01:56:44;97778.72;;;19.94;100.00
8697;BME280;4385;48.848;8.924;2023-05-25T01:59:12;97788.09;;;19.93;100.00
8697;BME280;4385;48.848;8.924;2023-05-25T02:01:41;97787.25;;;19.93;100.00
8697;BME280;4385;48.848;8.924;2023-05-25T02:04:07;97781.31;;;19.92;100.00
8697;BME280;4385;48.848;8.924;2023-05-25T02:06:34;97779.63;;;19.91;100.00
8697;BME280;4385;48.848;8.924;2023-05-25T02:09:00;97788.13;;;19.92;100.00
8697;BME280;4385;48.848;8.924;2023-05-25T02:11:25;97773.69;;;19.91;100.00
8697;BME280;4385;48.848;8.924;2023-05-25T02:13:51;97774.47;;;19.93;100.00
8697;BME280;4385;48.848;8.924;2023-05-25T02:16:17;97781.31;;;19.92;100.00
8697;BME280;4385;48.848;8.924;2023-05-25T02:18:42;97777.91;;;19.92;100.00
8697;BME280;4385;48.848;8.924;2023-05-25T02:21:09;97768.56;;;19.91;100.00
8697;BME280;4385;48.848;8.924;2023-05-25T02:23:34;97775.38;;;19.90;100.00
8697;BME280;4385;48.848;8.924;2023-05-25T02:25:59;97766.03;;;19.89;100.00
8697;BME280;4385;48.848;8.924;2023-05-25T02:28:25;97763.47;;;19.89;100.00
8697;BME280;4385;48.848;8.924;2023-05-25T02:30:50;97763.53;;;19.88;100.00
8697;BME280;4385;48.848;8.924;2023-05-25T02:33:15;97768.63;;;19.88;100.00
8697;BME280;4385;48.848;8.924;2023-05-25T02:35:41;97756.69;;;19.87;100.00
8697;BME280;4385;48.848;8.924;2023-05-25T02:38:06;97762.69;;;19.86;100.00
8697;BME280;4385;48.848;8.924;2023-05-25T02:40:31;97756.78;;;19.84;100.00
8697;BME280;4385;48.848;8.924;2023-05-25T02:42:57;97767.00;;;19.84;100.00
8697;BME280;4385;48.848;8.924;2023-05-25T02:45:22;97760.22;;;19.83;100.00
8697;BME280;4385;48.848;8.924;2023-05-25T02:47:47;97755.13;;;19.81;100.00
8697;BME280;4385;48.848;8.924;2023-05-25T02:50:13;97756.84;;;19.80;100.00
8697;BME280;4385;48.848;8.924;2023-05-25T02:52:38;97763.66;;;19.81;100.00
8697;BME280;4385;48.848;8.924;2023-05-25T02:55:04;97761.97;;;19.80;100.00
8697;BME280;4385;48.848;8.924;2023-05-25T02:57:30;97770.53;;;19.79;100.00
8697;BME280;4385;48.848;8.924;2023-05-25T02:59:55;97770.53;;;19.79;100.00
8697;BME280;4385;48.848;8.924;2023-05-25T03:02:21;97776.53;;;19.78;100.00
8697;BME280;4385;48.848;8.924;2023-05-25T03:04:49;97773.97;;;19.78;100.00
8697;BME280;4385;48.848;8.924;2023-05-25T03:07:18;97772.25;;;19.77;100.00
8697;BME280;4385;48.848;8.924;2023-05-25T03:09:43;97774.81;;;19.77;100.00
8697;BME280;4385;48.848;8.924;2023-05-25T03:12:08;97776.56;;;19.77;100.00
8697;BME280;4385;48.848;8.924;2023-05-25T03:14:33;97782.50;;;19.77;100.00
8697;BME280;4385;48.848;8.924;2023-05-25T03:16:59;97779.16;;;19.75;100.00
8697;BME280;4385;48.848;8.924;2023-05-25T03:19:24;97786.81;;;19.75;100.00
8697;BME280;4385;48.848;8.924;2023-05-25T03:21:49;97786.84;;;19.74;100.00
8697;BME280;4385;48.848;8.924;2023-05-25T03:24:15;97787.72;;;19.73;100.00
8697;BME280;4385;48.848;8.924;2023-05-25T03:26:40;97788.59;;;19.72;100.00
8697;BME280;4385;48.848;8.924;2023-05-25T03:29:05;97788.59;;;19.72;100.00
8697;BME280;4385;48.848;8.924;2023-05-25T03:31:31;97786.91;;;19.71;100.00
8697;BME280;4385;48.848;8.924;2023-05-25T03:33:56;97786.06;;;19.70;100.00
8697;BME280;4385;48.848;8.924;2023-05-25T03:36:22;97779.28;;;19.69;100.00
8697;BME280;4385;48.848;8.924;2023-05-25T03:38:51;97792.94;;;19.68;100.00
8697;BME280;4385;48.848;8.924;2023-05-25T03:41:16;97792.13;;;19.66;100.00
8697;BME280;4385;48.848;8.924;2023-05-25T03:43:42;97793.81;;;19.67;100.00
8697;BME280;4385;48.848;8.924;2023-05-25T03:46:07;97798.91;;;19.67;100.00
8697;BME280;4385;48.848;8.924;2023-05-25T03:48:35;97791.25;;;19.67;100.00
8697;BME280;4385;48.848;8.924;2023-05-25T03:51:00;97794.69;;;19.66;100.00
8697;BME280;4385;48.848;8.924;2023-05-25T03:53:25;97798.97;;;19.65;100.00
8697;BME280;4385;48.848;8.924;2023-05-25T03:55:51;97798.09;;;19.65;100.00
8697;BME280;4385;48.848;8.924;2023-05-25T03:58:16;97804.06;;;19.65;100.00
8697;BME280;4385;48.848;8.924;2023-05-25T04:00:42;97803.25;;;19.63;100.00
8697;BME280;4385;48.848;8.924;2023-05-25T04:03:07;97813.50;;;19.62;100.00
8697;BME280;4385;48.848;8.924;2023-05-25T04:05:34;97805.88;;;19.60;100.00
8697;BME280;4385;48.848;8.924;2023-05-25T04:08:01;97810.16;;;19.60;100.00
8697;BME280;4385;48.848;8.924;2023-05-25T04:10:27;97819.53;;;19.59;100.00
8697;BME280;4385;48.848;8.924;2023-05-25T04:12:52;97817.00;;;19.59;100.00
8697;BME280;4385;48.848;8.924;2023-05-25T04:15:20;97819.53;;;19.59;100.00
8697;BME280;4385;48.848;8.924;2023-05-25T04:17:46;97817.88;;;19.58;100.00
8697;BME280;4385;48.848;8.924;2023-05-25T04:20:11;97822.13;;;19.58;100.00
8697;BME280;4385;48.848;8.924;2023-05-25T04:22:36;97823.84;;;19.57;100.00
8697;BME280;4385;48.848;8.924;2023-05-25T04:25:04;97822.13;;;19.58;100.00
8697;BME280;4385;48.848;8.924;2023-05-25T04:27:29;97823.03;;;19.55;100.00
8697;BME280;4385;48.848;8.924;2023-05-25T04:29:55;97820.53;;;19.53;100.00
8697;BME280;4385;48.848;8.924;2023-05-25T04:32:21;97827.34;;;19.53;100.00
8697;BME280;4385;48.848;8.924;2023-05-25T04:34:47;97818.81;;;19.52;100.00
8697;BME280;4385;48.848;8.924;2023-05-25T04:37:13;97814.59;;;19.51;100.00
8697;BME280;4385;48.848;8.924;2023-05-25T04:39:38;97817.13;;;19.53;100.00
8697;BME280;4385;48.848;8.924;2023-05-25T04:42:04;97819.66;;;19.53;100.00
8697;BME280;4385;48.848;8.924;2023-05-25T04:44:30;97819.66;;;19.53;100.00
8697;BME280;4385;48.848;8.924;2023-05-25T04:46:56;97813.72;;;19.52;100.00
8697;BME280;4385;48.848;8.924;2023-05-25T04:49:21;97819.66;;;19.53;100.00
8697;BME280;4385;48.848;8.924;2023-05-25T04:51:46;97823.94;;;19.52;100.00
8697;BME280;4385;48.848;8.924;2023-05-25T04:54:12;97820.56;;;19.52;100.00
8697;BME280;4385;48.848;8.924;2023-05-25T04:56:37;97820.59;;;19.50;100.00
8697;BME280;4385;48.848;8.924;2023-05-25T04:59:02;97816.31;;;19.51;100.00
8697;BME280;4385;48.848;8.924;2023-05-25T05:01:29;97822.25;;;19.51;100.00
8697;BME280;4385;48.848;8.924;2023-05-25T05:03:54;97827.38;;;19.51;100.00
8697;BME280;4385;48.848;8.924;2023-05-25T05:06:19;97837.59;;;19.51;100.00
8697;BME280;4385;48.848;8.924;2023-05-25T05:08:45;97842.72;;;19.51;100.00
8697;BME280;4385;48.848;8.924;2023-05-25T05:11:11;97846.94;;;19.52;100.00
8697;BME280;4385;48.848;8.924;2023-05-25T05:13:36;97849.50;;;19.52;100.00
8697;BME280;4385;48.848;8.924;2023-05-25T05:16:01;97851.19;;;19.53;100.00
8697;BME280;4385;48.848;8.924;2023-05-25T05:18:26;97848.66;;;19.53;100.00
8697;BME280;4385;48.848;8.924;2023-05-25T05:20:53;97852.03;;;19.54;100.00
8697;BME280;4385;48.848;8.924;2023-05-25T05:23:18;97856.28;;;19.55;100.00
8697;BME280;4385;48.848;8.924;2023-05-25T05:25:43;97862.19;;;19.57;100.00
8697;BME280;4385;48.848;8.924;2023-05-25T05:28:10;97854.47;;;19.59;100.00
8697;BME280;4385;48.848;8.924;2023-05-25T05:30:35;97861.31;;;19.58;100.00
8697;BME280;4385;48.848;8.924;2023-05-25T05:33:01;97862.16;;;19.59;100.00
8697;BME280;4385;48.848;8.924;2023-05-25T05:35:26;97859.59;;;19.59;100.00
8697;BME280;4385;48.848;8.924;2023-05-25T05:37:51;97871.53;;;19.60;100.00
8697;BME280;4385;48.848;8.924;2023-05-25T05:40:16;97864.69;;;19.59;100.00
8697;BME280;4385;48.848;8.924;2023-05-25T05:42:42;97872.38;;;19.59;100.00
8697;BME280;4385;48.848;8.924;2023-05-25T05:45:08;97876.66;;;19.58;100.00
8697;BME280;4385;48.848;8.924;2023-05-25T05:47:33;97880.03;;;19.59;100.00
8697;BME280;4385;48.848;8.924;2023-05-25T05:49:58;97887.72;;;19.59;100.00
8697;BME280;4385;48.848;8.924;2023-05-25T05:52:24;97893.66;;;19.61;100.00
8697;BME280;4385;48.848;8.924;2023-05-25T05:54:49;97891.06;;;19.62;100.00
8697;BME280;4385;48.848;8.924;2023-05-25T05:57:14;97899.56;;;19.63;100.00
8697;BME280;4385;48.848;8.924;2023-05-25T05:59:40;97899.59;;;19.61;100.00
8697;BME280;4385;48.848;8.924;2023-05-25T06:02:06;97908.97;;;19.61;100.00
8697;BME280;4385;48.848;8.924;2023-05-25T06:04:31;97905.56;;;19.60;100.00
8697;BME280;4385;48.848;8.924;2023-05-25T06:06:57;97903.06;;;19.59;100.00
8697;BME280;4385;48.848;8.924;2023-05-25T06:09:23;97908.97;;;19.61;100.00
8697;BME280;4385;48.848;8.924;2023-05-25T06:11:48;97909.88;;;19.60;100.00
8697;BME280;4385;48.848;8.924;2023-05-25T06:14:13;97912.41;;;19.60;100.00
8697;BME280;4385;48.848;8.924;2023-05-25T06:16:39;97910.69;;;19.60;100.00
8697;BME280;4385;48.848;8.924;2023-05-25T06:19:04;97920.91;;;19.60;100.00
8697;BME280;4385;48.848;8.924;2023-05-25T06:21:29;97914.09;;;19.61;100.00
8697;BME280;4385;48.848;8.924;2023-05-25T06:23:54;97924.31;;;19.61;100.00
8697;BME280;4385;48.848;8.924;2023-05-25T06:26:22;97926.00;;;19.62;100.00
8697;BME280;4385;48.848;8.924;2023-05-25T06:28:47;97921.72;;;19.62;100.00
8697;BME280;4385;48.848;8.924;2023-05-25T06:31:14;97908.97;;;19.61;100.00
8697;BME280;4385;48.848;8.924;2023-05-25T06:33:39;97917.53;;;19.60;100.00
8697;BME280;4385;48.848;8.924;2023-05-25T06:36:05;97917.53;;;19.60;100.00
8697;BME280;4385;48.848;8.924;2023-05-25T06:38:31;97916.69;;;19.59;100.00
8697;BME280;4385;48.848;8.924;2023-05-25T06:40:56;97917.53;;;19.60;100.00
8697;BME280;4385;48.848;8.924;2023-05-25T06:43:26;97916.69;;;19.59;100.00
8697;BME280;4385;48.848;8.924;2023-05-25T06:45:51;97923.50;;;19.59;100.00
8697;BME280;4385;48.848;8.924;2023-05-25T06:48:17;97921.84;;;19.56;100.00
8697;BME280;4385;48.848;8.924;2023-05-25T06:50:42;97922.72;;;19.56;100.00
8697;BME280;4385;48.848;8.924;2023-05-25T06:53:07;97922.72;;;19.56;100.00
8697;BME280;4385;48.848;8.924;2023-05-25T06:55:34;97921.00;;;19.55;100.00
8697;BME280;4385;48.848;8.924;2023-05-25T06:58:00;97925.25;;;19.56;100.00
8697;BME280;4385;48.848;8.924;2023-05-25T07:00:25;97916.72;;;19.58;100.00
8697;BME280;4385;48.848;8.924;2023-05-25T07:02:50;97920.94;;;19.59;100.00
8697;BME280;4385;48.848;8.924;2023-05-25T07:05:16;97928.59;;;19.60;100.00
8697;BME280;4385;48.848;8.924;2023-05-25T07:07:41;97927.69;;;19.63;100.00
8697;BME280;4385;48.848;8.924;2023-05-25T07:10:07;97933.59;;;19.65;100.00
8697;BME280;4385;48.848;8.924;2023-05-25T07:12:32;97942.97;;;19.66;100.00
8697;BME280;4385;48.848;8.924;2023-05-25T07:14:58;97944.66;;;19.67;100.00
8697;BME280;4385;48.848;8.924;2023-05-25T07:17:23;97940.34;;;19.69;100.00
8697;BME280;4385;48.848;8.924;2023-05-25T07:19:48;97935.25;;;19.69;100.00
8697;BME280;4385;48.848;8.924;2023-05-25T07:22:14;97941.16;;;19.71;100.00
8697;BME280;4385;48.848;8.924;2023-05-25T07:24:45;97939.44;;;19.72;100.00
8697;BME280;4385;48.848;8.924;2023-05-25T07:27:11;97936.03;;;19.71;100.00
8697;BME280;4385;48.848;8.924;2023-05-25T07:29:37;97940.25;;;19.74;100.00
8697;BME280;4385;48.848;8.924;2023-05-25T07:32:02;97941.94;;;19.75;100.00
8697;BME280;4385;48.848;8.924;2023-05-25T07:34:28;97938.50;;;19.76;100.00
8697;BME280;4385;48.848;8.924;2023-05-25T07:36:53;97935.91;;;19.77;100.00
8697;BME280;4385;48.848;8.924;2023-05-25T07:39:18;97937.63;;;19.78;100.00
8697;BME280;4385;48.848;8.924;2023-05-25T07:41:46;97926.53;;;19.78;100.00
8697;BME280;4385;48.848;8.924;2023-05-25T07:44:12;97926.53;;;19.78;100.00
8697;BME280;4385;48.848;8.924;2023-05-25T07:46:37;97931.66;;;19.78;100.00
8697;BME280;4385;48.848;8.924;2023-05-25T07:49:02;97926.53;;;19.78;100.00
8697;BME280;4385;48.848;8.924;2023-05-25T07:51:29;97946.13;;;19.77;100.00
8697;BME280;4385;48.848;8.924;2023-05-25T07:53:55;97946.13;;;19.77;100.00
8697;BME280;4385;48.848;8.924;2023-05-25T07:56:22;97939.31;;;19.78;100.00
8697;BME280;4385;48.848;8.924;2023-05-25T07:58:48;97943.59;;;19.77;100.00
8697;BME280;4385;48.848;8.924;2023-05-25T08:01:13;97941.88;;;19.78;100.00
8697;BME280;4385;48.848;8.924;2023-05-25T08:03:40;97941.88;;;19.78;100.00
8697;BME280;4385;48.848;8.924;2023-05-25T08:06:05;97950.44;;;19.77;100.00
8697;BME280;4385;48.848;8.924;2023-05-25T08:08:30;97941.91;;;19.76;100.00
8697;BME280;4385;48.848;8.924;2023-05-25T08:10:56;97934.25;;;19.76;100.00
8697;BME280;4385;48.848;8.924;2023-05-25T08:13:21;97941.88;;;19.78;100.00
8697;BME280;4385;48.848;8.924;2023-05-25T08:15:47;97941.88;;;19.78;100.00
8697;BME280;4385;48.848;8.924;2023-05-25T08:18:13;97941.84;;;19.79;100.00
8697;BME280;4385;48.848;8.924;2023-05-25T08:20:39;97945.25;;;19.80;100.00
8697;BME280;4385;48.848;8.924;2023-05-25T08:23:05;97946.97;;;19.79;100.00
8697;BME280;4385;48.848;8.924;2023-05-25T08:25:30;97952.91;;;19.81;100.00
8697;BME280;4385;48.848;8.924;2023-05-25T08:27:55;97951.16;;;19.82;100.00
8697;BME280;4385;48.848;8.924;2023-05-25T08:30:21;97949.44;;;19.83;100.00
8697;BME280;4385;48.848;8.924;2023-05-25T08:32:46;97952.88;;;19.83;100.00
8697;BME280;4385;48.848;8.924;2023-05-25T08:35:12;97953.66;;;19.85;100.00
8697;BME280;4385;48.848;8.924;2023-05-25T08:37:38;97948.56;;;19.84;100.00
8697;BME280;4385;48.848;8.924;2023-05-25T08:40:06;97949.41;;;19.84;100.00
8697;BME280;4385;48.848;8.924;2023-05-25T08:42:32;97948.53;;;19.85;100.00
8697;BME280;4385;48.848;8.924;2023-05-25T08:44:57;97956.19;;;19.87;100.00
8697;BME280;4385;48.848;8.924;2023-05-25T08:47:23;97951.06;;;19.87;100.00
8697;BME280;4385;48.848;8.924;2023-05-25T08:49:49;97964.69;;;19.87;100.00
8697;BME280;4385;48.848;8.924;2023-05-25T08:52:21;97960.44;;;19.88;100.00
8697;BME280;4385;48.848;8.924;2023-05-25T08:54:50;97961.28;;;19.87;100.00
8697;BME280;4385;48.848;8.924;2023-05-25T08:57:28;97968.09;;;19.89;100.00
8697;BME280;4385;48.848;8.924;2023-05-25T09:00:05;97962.94;;;19.91;100.00
8697;BME280;4385;48.848;8.924;2023-05-25T09:05:16;97957.81;;;19.91;100.00
8697;BME280;4385;48.848;8.924;2023-05-25T09:07:42;97958.63;;;19.91;100.00
8697;BME280;4385;48.848;8.924;2023-05-25T09:10:09;97943.28;;;19.91;100.00
8697;BME280;4385;48.848;8.924;2023-05-25T09:12:35;97953.53;;;19.91;100.00
8697;BME280;4385;48.848;8.924;2023-05-25T09:15:02;97961.19;;;19.91;100.00
8697;BME280;4385;48.848;8.924;2023-05-25T09:17:27;97954.38;;;19.92;100.00
8697;BME280;4385;48.848;8.924;2023-05-25T09:19:53;97946.72;;;19.92;100.00
8697;BME280;4385;48.848;8.924;2023-05-25T09:22:18;97949.25;;;19.92;100.00
8697;BME280;4385;48.848;8.924;2023-05-25T09:24:44;97945.84;;;19.91;100.00
8697;BME280;4385;48.848;8.924;2023-05-25T09:27:10;97950.94;;;19.93;100.00
8697;BME280;4385;48.848;8.924;2023-05-25T09:29:36;97951.78;;;19.93;100.00
8697;BME280;4385;48.848;8.924;2023-05-25T09:32:04;97957.75;;;19.94;100.00
8697;BME280;4385;48.848;8.924;2023-05-25T09:34:30;97956.91;;;19.93;100.00
8697;BME280;4385;48.848;8.924;2023-05-25T09:37:00;97953.44;;;19.96;100.00
8697;BME280;4385;48.848;8.924;2023-05-25T09:39:25;97955.13;;;19.97;100.00
8697;BME280;4385;48.848;8.924;2023-05-25T09:41:51;97954.25;;;19.98;100.00
8697;BME280;4385;48.848;8.924;2023-05-25T09:44:17;97956.78;;;20.00;100.00
8697;BME280;4385;48.848;8.924;2023-05-25T09:46:43;97962.75;;;20.00;100.00
8697;BME280;4385;48.848;8.924;2023-05-25T09:49:09;97956.78;;;20.00;100.00
8697;BME280;4385;48.848;8.924;2023-05-25T09:51:35;97957.63;;;20.00;100.00
8697;BME280;4385;48.848;8.924;2023-05-25T09:54:02;97953.34;;;20.02;100.00
8697;BME280;4385;48.848;8.924;2023-05-25T09:56:30;97961.84;;;20.03;100.00
8697;BME280;4385;48.848;8.924;2023-05-25T09:58:56;97959.31;;;20.01;100.00
8697;BME280;4385;48.848;8.924;2023-05-25T10:01:22;97966.13;;;20.02;100.00
8697;BME280;4385;48.848;8.924;2023-05-25T10:03:48;97966.13;;;20.02;100.00
8697;BME280;4385;48.848;8.924;2023-05-25T10:06:15;97969.53;;;20.03;100.00
8697;BME280;4385;48.848;8.924;2023-05-25T10:08:43;97957.59;;;20.03;100.00
8697;BME280;4385;48.848;8.924;2023-05-25T10:11:12;97962.72;;;20.03;100.00
8697;BME280;4385;48.848;8.924;2023-05-25T10:13:39;97964.38;;;20.04;100.00
8697;BME280;4385;48.848;8.924;2023-05-25T10:16:07;97963.53;;;20.04;100.00
8697;BME280;4385;48.848;8.924;2023-05-25T10:18:35;97966.94;;;20.04;100.00
8697;BME280;4385;48.848;8.924;2023-05-25T10:21:03;97961.84;;;20.03;100.00
8697;BME280;4385;48.848;8.924;2023-05-25T10:23:35;97964.38;;;20.04;100.00
8697;BME280;4385;48.848;8.924;2023-05-25T10:26:02;97959.19;;;20.08;100.00
8697;BME280;4385;48.848;8.924;2023-05-25T10:28:34;97960.03;;;20.10;100.00
8697;BME280;4385;48.848;8.924;2023-05-25T10:31:01;97960.03;;;20.10;100.00
8697;BME280;4385;48.848;8.924;2023-05-25T10:33:27;97955.69;;;20.12;100.00
8697;BME280;4385;48.848;8.924;2023-05-25T10:35:53;97954.84;;;20.13;100.00
8697;BME280;4385;48.848;8.924;2023-05-25T10:38:19;97954.84;;;20.13;100.00
8697;BME280;4385;48.848;8.924;2023-05-25T10:40:45;97953.94;;;20.14;100.00
8697;BME280;4385;48.848;8.924;2023-05-25T10:43:16;97954.81;;;20.14;100.00
8697;BME280;4385;48.848;8.924;2023-05-25T10:45:43;97960.75;;;20.15;100.00
8697;BME280;4385;48.848;8.924;2023-05-25T10:48:08;97953.94;;;20.14;100.00
8697;BME280;4385;48.848;8.924;2023-05-25T10:50:35;97948.84;;;20.14;100.00
8697;BME280;4385;48.848;8.924;2023-05-25T10:53:08;97950.50;;;20.15;100.00
8697;BME280;4385;48.848;8.924;2023-05-25T10:58:17;97964.19;;;20.14;100.00
8697;BME280;4385;48.848;8.924;2023-05-25T11:00:56;97964.25;;;20.11;100.00
8697;BME280;4385;48.848;8.924;2023-05-25T11:03:23;97963.34;;;20.13;100.00
8697;BME280;4385;48.848;8.924;2023-05-25T11:06:07;97965.03;;;20.14;100.00
8697;BME280;4385;48.848;8.924;2023-05-25T11:11:16;97966.69;;;20.17;100.00
8697;BME280;4385;48.848;8.924;2023-05-25T11:13:45;97956.41;;;20.18;100.00
8697;BME280;4385;48.848;8.924;2023-05-25T11:18:50;97948.66;;;20.22;100.00
8697;BME280;4385;48.848;8.924;2023-05-25T11:21:40;97962.31;;;20.22;100.00
8697;BME280;4385;48.848;8.924;2023-05-25T11:24:15;97952.09;;;20.22;100.00
8697;BME280;4385;48.848;8.924;2023-05-25T11:26:57;97952.88;;;20.24;100.00
8697;BME280;4385;48.848;8.924;2023-05-25T11:29:23;97954.56;;;20.25;100.00
8697;BME280;4385;48.848;8.924;2023-05-25T11:31:52;97957.13;;;20.25;100.00
8697;BME280;4385;48.848;8.924;2023-05-25T11:34:23;97952.00;;;20.25;100.00
8697;BME280;4385;48.848;8.924;2023-05-25T11:36:53;97957.13;;;20.25;100.00
8697;BME280;4385;48.848;8.924;2023-05-25T11:39:19;97952.00;;;20.25;100.00
8697;BME280;4385;48.848;8.924;2023-05-25T11:41:49;97952.00;;;20.25;100.00
8697;BME280;4385;48.848;8.924;2023-05-25T11:44:24;97957.13;;;20.25;100.00
8697;BME280;4385;48.848;8.924;2023-05-25T11:46:52;97947.72;;;20.26;100.00
8697;BME280;4385;48.848;8.924;2023-05-25T11:49:20;97942.56;;;20.27;100.00
8697;BME280;4385;48.848;8.924;2023-05-25T11:51:45;97942.59;;;20.26;100.00
8697;BME280;4385;48.848;8.924;2023-05-25T11:54:20;97941.75;;;20.27;100.00
8697;BME280;4385;48.848;8.924;2023-05-25T11:56:45;97943.44;;;20.26;100.00
8697;BME280;4385;48.848;8.924;2023-05-25T11:59:10;97952.00;;;20.25;100.00
8697;BME280;4385;48.848;8.924;2023-05-25T12:01:36;97950.25;;;20.27;100.00
8697;BME280;4385;48.848;8.924;2023-05-25T12:04:07;97945.13;;;20.27;100.00
8697;BME280;4385;48.848;8.924;2023-05-25T12:06:33;97947.69;;;20.27;100.00
8697;BME280;4385;48.848;8.924;2023-05-25T12:09:01;97943.38;;;20.29;100.00
8697;BME280;4385;48.848;8.924;2023-05-25T12:11:33;97947.59;;;20.30;100.00
8697;BME280;4385;48.848;8.924;2023-05-25T12:14:02;97946.75;;;20.31;100.00
8697;BME280;4385;48.848;8.924;2023-05-25T12:16:28;97937.38;;;20.30;100.00
8697;BME280;4385;48.848;8.924;2023-05-25T12:18:55;97943.31;;;20.33;100.00
8697;BME280;4385;48.848;8.924;2023-05-25T12:21:21;97942.41;;;20.34;100.00
8697;BME280;4385;48.848;8.924;2023-05-25T12:23:47;97937.31;;;20.34;100.00
8697;BME280;4385;48.848;8.924;2023-05-25T12:26:15;97938.16;;;20.34;100.00
8697;BME280;4385;48.848;8.924;2023-05-25T12:29:03;97939.88;;;20.34;100.00
8697;BME280;4385;48.848;8.924;2023-05-25T12:31:35;97947.50;;;20.35;100.00
8697;BME280;4385;48.848;8.924;2023-05-25T12:34:05;97944.91;;;20.37;100.00
8697;BME280;4385;48.848;8.924;2023-05-25T12:36:55;97943.25;;;20.36;100.00
8697;BME280;4385;48.848;8.924;2023-05-25T12:41:56;97938.94;;;20.38;100.00
8697;BME280;4385;48.848;8.924;2023-05-25T12:44:31;97934.66;;;20.37;100.00
8697;BME280;4385;48.848;8.924;2023-05-25T12:49:34;97927.88;;;20.36;100.00
8697;BME280;4385;48.848;8.924;2023-05-25T12:52:03;97927.88;;;20.36;100.00
8697;BME280;4385;48.848;8.924;2023-05-25T12:54:42;97931.28;;;20.36;100.00
8697;BME280;4385;48.848;8.924;2023-05-25T12:57:11;97929.56;;;20.37;100.00
8697;BME280;4385;48.848;8.924;2023-05-25T12:59:38;97919.31;;;20.37;100.00
8697;BME280;4385;48.848;8.924;2023-05-25T13:02:04;97926.13;;;20.38;100.00
8697;BME280;4385;48.848;8.924;2023-05-25T13:04:30;97926.13;;;20.38;100.00
8697;BME280;4385;48.848;8.924;2023-05-25T13:06:56;97919.25;;;20.40;100.00
8697;BME280;4385;48.848;8.924;2023-05-25T13:09:24;97917.50;;;20.42;100.00
8697;BME280;4385;48.848;8.924;2023-05-25T13:11:51;97925.16;;;20.43;100.00
8697;BME280;4385;48.848;8.924;2023-05-25T13:14:17;97926.00;;;20.44;100.00
8697;BME280;4385;48.848;8.924;2023-05-25T13:16:43;97931.94;;;20.44;100.00
8697;BME280;4385;48.848;8.924;2023-05-25T13:19:08;97921.66;;;20.46;100.00
8697;BME280;4385;48.848;8.924;2023-05-25T13:21:33;97929.28;;;20.49;100.00
8697;BME280;4385;48.848;8.924;2023-05-25T13:23:59;97923.28;;;20.50;100.00
8697;BME280;4385;48.848;8.924;2023-05-25T13:26:25;97917.28;;;20.51;100.00